createdAt,value
2022-10-12T00:01:59.190Z,6.436462
2022-10-12T00:05:24.288Z,6.40625
2022-10-12T00:08:49.456Z,6.396179
2022-10-12T00:12:14.624Z,6.376038
2022-10-12T00:15:39.761Z,6.325684
2022-10-12T00:19:05.220Z,6.295471
2022-10-12T00:22:30.391Z,6.295471
2022-10-12T00:25:55.558Z,6.305542
2022-10-12T00:29:20.738Z,6.295471
2022-10-12T00:32:45.894Z,6.265259
2022-10-12T00:36:11.042Z,6.224976
2022-10-12T00:39:36.202Z,6.194763
2022-10-12T00:43:01.375Z,6.15448
2022-10-12T00:46:26.545Z,6.174622
2022-10-12T00:49:51.672Z,6.124268
2022-10-12T00:53:16.830Z,6.124268
2022-10-12T00:56:41.985Z,6.094055
2022-10-12T01:00:07.159Z,6.03363
2022-10-12T01:03:32.372Z,6.03363
2022-10-12T01:06:57.523Z,6.124268
2022-10-12T01:10:22.674Z,6.174622
2022-10-12T01:13:47.815Z,6.184692
2022-10-12T01:17:12.988Z,6.174622
2022-10-12T01:20:38.252Z,6.305542
2022-10-12T01:24:03.284Z,6.27533
2022-10-12T01:27:28.455Z,6.355896
2022-10-12T01:30:53.601Z,6.365967
2022-10-12T01:34:18.773Z,6.426392
2022-10-12T01:37:43.931Z,6.456604
2022-10-12T01:41:09.057Z,6.486816
2022-10-12T01:44:34.984Z,6.53717
2022-10-12T01:47:59.356Z,6.517029
2022-10-12T01:51:24.501Z,6.486816
2022-10-12T01:54:49.697Z,6.486816
2022-10-12T01:58:15.522Z,6.486816
2022-10-12T02:01:40.706Z,6.506958
2022-10-12T02:05:05.862Z,6.486816
2022-10-12T02:08:31.014Z,6.517029
2022-10-12T02:11:56.198Z,6.547241
2022-10-12T02:15:21.317Z,6.517029
2022-10-12T02:18:46.470Z,6.506958
2022-10-12T02:22:11.625Z,6.506958
2022-10-12T02:25:36.774Z,6.506958
2022-10-12T02:29:01.951Z,6.40625
2022-10-12T02:32:27.078Z,6.396179
2022-10-12T02:35:52.259Z,6.376038
2022-10-12T02:39:17.391Z,6.355896
2022-10-12T02:43:08.618Z,6.305542
2022-10-12T02:46:07.717Z,6.27533
2022-10-12T02:49:32.861Z,6.245117
2022-10-12T02:52:58.016Z,6.245117
2022-10-12T02:56:23.171Z,6.194763
2022-10-12T02:59:48.327Z,6.174622
2022-10-12T03:03:13.523Z,6.184692
2022-10-12T03:06:38.658Z,6.184692
2022-10-12T03:10:03.819Z,6.184692
2022-10-12T03:13:28.975Z,6.194763
2022-10-12T03:16:54.126Z,6.335754
2022-10-12T03:20:19.346Z,6.486816
2022-10-12T03:23:44.475Z,6.587524
2022-10-12T03:27:09.631Z,6.728516
2022-10-12T03:30:34.770Z,6.90979
2022-10-12T03:33:59.930Z,7.060852
2022-10-12T03:37:25.130Z,7.16156
2022-10-12T03:40:50.246Z,7.272339
2022-10-12T03:44:15.428Z,7.342834
2022-10-12T03:47:40.885Z,7.322693
2022-10-12T03:51:05.766Z,7.272339
2022-10-12T03:54:30.939Z,7.121277
2022-10-12T03:57:56.097Z,6.950073
2022-10-12T04:01:21.394Z,6.839294
2022-10-12T04:04:46.571Z,6.708374
2022-10-12T04:08:11.768Z,6.637878
2022-10-12T04:11:36.949Z,6.577454
2022-10-12T04:15:02.080Z,6.486816
2022-10-12T04:18:27.236Z,6.40625
2022-10-12T04:21:52.443Z,6.355896
2022-10-12T04:25:17.595Z,6.325684
2022-10-12T04:28:42.798Z,6.295471
2022-10-12T04:32:12.294Z,6.245117
2022-10-12T04:35:33.035Z,6.214905
2022-10-12T04:39:00.938Z,6.214905
2022-10-12T04:42:23.343Z,6.214905
2022-10-12T04:45:48.525Z,6.174622
2022-10-12T04:49:13.654Z,6.15448
2022-10-12T04:52:38.918Z,6.174622
2022-10-12T04:56:04.095Z,6.144409
2022-10-12T04:59:29.302Z,6.15448
2022-10-12T05:02:54.469Z,6.124268
2022-10-12T05:06:19.615Z,6.144409
2022-10-12T05:09:44.769Z,6.174622
2022-10-12T05:13:09.964Z,6.194763
2022-10-12T05:16:35.123Z,6.214905
2022-10-12T05:20:00.380Z,6.224976
2022-10-12T05:23:25.516Z,6.224976
2022-10-12T05:26:50.665Z,6.245117
2022-10-12T05:30:15.812Z,6.245117
2022-10-12T05:33:40.979Z,6.214905
2022-10-12T05:37:06.162Z,6.184692
2022-10-12T05:40:31.301Z,6.194763
2022-10-12T05:43:56.495Z,6.214905
2022-10-12T05:47:21.668Z,6.245117
2022-10-12T05:50:46.881Z,6.305542
2022-10-12T05:54:12.134Z,6.376038
2022-10-12T05:57:37.302Z,6.426392
2022-10-12T06:01:02.494Z,6.486816
2022-10-12T06:04:27.712Z,6.53717
2022-10-12T06:07:52.933Z,6.587524
2022-10-12T06:11:18.188Z,6.637878
2022-10-12T06:14:43.334Z,6.688232
2022-10-12T06:18:08.545Z,6.738586
2022-10-12T06:21:34.660Z,6.849365
2022-10-12T06:24:58.938Z,6.90979
2022-10-12T06:28:24.201Z,6.950073
2022-10-12T06:31:51.720Z,7.03064
2022-10-12T06:35:14.506Z,7.091064
2022-10-12T06:38:39.741Z,7.171631
2022-10-12T06:42:04.934Z,7.28241
2022-10-12T06:45:30.198Z,7.403259
2022-10-12T06:48:55.379Z,7.524109
2022-10-12T06:52:20.594Z,7.634888
2022-10-12T06:55:45.811Z,7.715454
2022-10-12T06:59:11.006Z,7.826233
2022-10-12T07:02:36.513Z,7.886658
2022-10-12T07:06:01.400Z,7.91687
2022-10-12T07:09:26.612Z,7.997437
2022-10-12T07:12:51.798Z,8.118286
2022-10-12T07:16:16.984Z,8.218994
2022-10-12T07:19:42.186Z,8.259277
2022-10-12T07:23:07.341Z,8.339844
2022-10-12T07:26:32.583Z,8.440552
2022-10-12T07:29:57.801Z,8.450623
2022-10-12T07:33:23.009Z,8.531189
2022-10-12T07:36:58.923Z,8.591614
2022-10-12T07:40:13.435Z,8.631897
2022-10-12T07:43:38.618Z,8.732605
2022-10-12T07:47:03.817Z,8.742676
2022-10-12T07:50:29.039Z,8.913879
2022-10-12T07:53:54.260Z,8.944092
2022-10-12T07:57:19.455Z,9.075012
2022-10-12T08:00:44.664Z,9.105225
2022-10-12T08:04:09.887Z,9.236145
2022-10-12T08:07:35.082Z,9.326782
2022-10-12T08:11:00.311Z,9.377136
2022-10-12T08:14:25.500Z,9.42749
2022-10-12T08:17:50.735Z,9.477844
2022-10-12T08:21:15.910Z,9.528198
2022-10-12T08:24:41.782Z,9.568481
2022-10-12T08:28:07.047Z,9.638977
2022-10-12T08:31:32.200Z,9.749756
2022-10-12T08:34:57.443Z,9.790039
2022-10-12T08:38:22.643Z,9.971313
2022-10-12T08:41:47.835Z,10.082092
2022-10-12T08:45:13.070Z,10.172729
2022-10-12T08:48:38.225Z,10.323792
2022-10-12T08:52:03.407Z,10.454712
2022-10-12T08:55:28.594Z,10.474854
2022-10-12T08:58:53.786Z,10.595703
2022-10-12T09:02:19.133Z,10.625916
2022-10-12T09:05:44.190Z,10.625916
2022-10-12T09:09:09.420Z,10.706482
2022-10-12T09:12:34.616Z,10.837402
2022-10-12T09:15:59.797Z,10.958252
2022-10-12T09:19:25.074Z,11.109314
2022-10-12T09:22:50.169Z,11.270447
2022-10-12T09:26:15.368Z,11.421509
2022-10-12T09:29:40.574Z,11.492004
2022-10-12T09:33:05.756Z,11.471863
2022-10-12T09:36:30.949Z,11.522217
2022-10-12T09:39:56.439Z,11.572571
2022-10-12T09:43:21.624Z,11.602783
2022-10-12T09:46:46.822Z,11.69342
2022-10-12T09:50:12.012Z,11.753845
2022-10-12T09:53:37.251Z,11.834412
2022-10-12T09:57:02.473Z,11.884766
2022-10-12T10:00:27.665Z,11.975403
2022-10-12T10:03:52.885Z,12.035828
2022-10-12T10:07:18.111Z,12.136536
2022-10-12T10:10:43.337Z,12.277527
2022-10-12T10:14:08.553Z,12.337952
2022-10-12T10:17:33.770Z,12.408447
2022-10-12T10:20:58.980Z,12.529297
2022-10-12T10:24:24.185Z,12.619934
2022-10-12T10:27:49.412Z,12.720642
2022-10-12T10:31:14.628Z,12.791138
2022-10-12T10:34:39.879Z,12.901917
2022-10-12T10:38:05.102Z,12.952271
2022-10-12T10:41:30.322Z,13.002625
2022-10-12T10:44:55.629Z,13.07312
2022-10-12T10:48:20.716Z,13.07312
2022-10-12T10:51:45.951Z,13.083191
2022-10-12T10:55:11.158Z,13.153687
2022-10-12T10:58:36.366Z,13.304749
2022-10-12T11:02:01.671Z,13.415527
2022-10-12T11:05:26.803Z,13.516235
2022-10-12T11:08:52.003Z,13.616943
2022-10-12T11:12:17.240Z,13.596802
2022-10-12T11:15:42.469Z,13.536377
2022-10-12T11:19:07.743Z,13.546448
2022-10-12T11:22:32.961Z,13.586731
2022-10-12T11:25:58.191Z,13.657227
2022-10-12T11:29:23.389Z,13.838501
2022-10-12T11:32:48.569Z,14.019775
2022-10-12T11:36:13.810Z,14.090271
2022-10-12T11:39:39.015Z,14.120483
2022-10-12T11:43:06.539Z,14.120483
2022-10-12T11:46:29.375Z,14.170837
2022-10-12T11:49:54.539Z,14.251404
2022-10-12T11:53:19.746Z,14.392395
2022-10-12T11:56:44.920Z,14.513245
2022-10-12T12:00:10.108Z,14.654236
2022-10-12T12:03:35.287Z,14.775085
2022-10-12T12:07:00.443Z,14.795227
2022-10-12T12:10:25.681Z,14.795227
2022-10-12T12:13:50.787Z,14.734802
2022-10-12T12:17:15.998Z,14.694519
2022-10-12T12:20:41.171Z,14.58374
2022-10-12T12:24:06.360Z,14.513245
2022-10-12T12:27:31.698Z,14.513245
2022-10-12T12:30:56.707Z,14.513245
2022-10-12T12:34:21.917Z,14.513245
2022-10-12T12:37:47.106Z,14.503174
2022-10-12T12:41:12.346Z,14.402466
2022-10-12T12:44:37.558Z,14.462891
2022-10-12T12:48:02.729Z,14.462891
2022-10-12T12:51:27.914Z,14.603882
2022-10-12T12:54:53.474Z,14.654236
2022-10-12T12:58:18.332Z,14.684448
2022-10-12T13:01:43.655Z,14.775085
2022-10-12T13:05:08.718Z,14.906006
2022-10-12T13:08:33.891Z,15.016785
2022-10-12T13:11:59.122Z,15.08728
2022-10-12T13:15:24.301Z,15.187988
2022-10-12T13:19:26.990Z,15.20813
2022-10-12T13:23:03.182Z,15.187988
2022-10-12T13:26:28.392Z,15.137634
2022-10-12T13:29:53.636Z,15.097351
2022-10-12T13:33:18.856Z,15.026855
2022-10-12T13:36:44.072Z,14.946289
2022-10-12T13:40:09.319Z,14.936218
2022-10-12T13:43:34.522Z,14.95636
2022-10-12T13:46:59.753Z,15.026855
2022-10-12T13:50:25.115Z,15.08728
2022-10-12T13:53:52.387Z,15.127563
2022-10-12T13:57:17.687Z,15.107422
2022-10-12T14:00:43.021Z,15.067139
2022-10-12T14:04:08.126Z,15.026855
2022-10-12T14:07:33.671Z,15.006714
2022-10-12T14:10:58.543Z,14.986572
2022-10-12T14:14:23.793Z,15.006714
2022-10-12T14:17:49.048Z,15.026855
2022-10-12T14:21:14.225Z,15.006714
2022-10-12T14:24:39.452Z,14.936218
2022-10-12T14:28:04.640Z,14.885864
2022-10-12T15:04:07.247Z,14.754944
2022-10-12T15:07:32.392Z,14.694519
2022-10-12T15:10:57.571Z,14.684448
2022-10-12T15:14:22.758Z,14.644165
2022-10-12T15:17:47.939Z,14.603882
2022-10-12T15:21:13.157Z,14.573669
2022-10-12T15:24:38.301Z,14.523315
2022-10-12T15:28:03.475Z,14.513245
2022-10-12T15:31:28.709Z,14.503174
2022-10-12T15:34:53.873Z,14.432678
2022-10-12T15:38:19.064Z,14.352112
2022-10-12T15:41:44.222Z,14.221191
2022-10-12T15:45:09.396Z,13.999634
2022-10-12T15:48:34.657Z,13.788147
2022-10-12T15:51:59.861Z,13.637085
2022-10-12T15:55:25.131Z,13.44574
2022-10-12T15:58:50.339Z,13.304749
2022-10-12T16:02:15.566Z,13.123474
2022-10-12T16:05:40.737Z,13.002625
2022-10-12T16:09:05.968Z,12.851562
2022-10-12T16:12:31.212Z,12.7005
2022-10-12T16:15:56.398Z,12.589722
2022-10-12T16:19:21.624Z,12.529297
2022-10-12T16:22:46.785Z,12.44873
2022-10-12T16:26:11.965Z,12.31781
2022-10-12T16:29:37.283Z,12.227173
2022-10-12T16:33:02.309Z,12.156677
2022-10-12T16:36:27.457Z,12.06604
2022-10-12T16:39:52.639Z,11.975403
2022-10-12T16:43:17.801Z,11.904907
2022-10-12T16:46:42.975Z,11.834412
2022-10-12T16:50:08.117Z,11.733704
2022-10-12T16:53:33.312Z,11.673279
2022-10-12T16:56:58.468Z,11.622925
2022-10-12T17:00:23.639Z,11.582642
2022-10-12T17:03:48.849Z,11.492004
2022-10-12T17:07:14.001Z,11.43158
2022-10-12T17:10:39.154Z,11.391296
2022-10-12T17:14:04.348Z,11.361084
2022-10-12T17:17:29.549Z,11.290588
2022-10-12T17:20:54.781Z,11.290588
2022-10-12T17:24:19.978Z,11.270447
2022-10-12T17:27:45.172Z,11.250305
2022-10-12T17:31:11.733Z,11.220093
2022-10-12T17:34:35.605Z,11.17981
2022-10-12T17:38:00.891Z,11.17981
2022-10-12T17:41:26.114Z,11.17981
2022-10-12T17:44:51.298Z,11.17981
2022-10-12T17:48:16.537Z,11.17981
2022-10-12T17:51:41.736Z,11.210022
2022-10-12T17:55:07.644Z,11.220093
2022-10-12T17:58:32.196Z,11.220093
2022-10-12T18:01:57.447Z,11.240234
2022-10-12T18:05:22.668Z,11.220093
2022-10-12T18:08:47.937Z,11.149597
2022-10-12T18:12:13.226Z,11.169739
2022-10-12T18:15:38.521Z,11.18988
2022-10-12T18:19:03.782Z,11.169739
2022-10-12T18:22:29.023Z,11.17981
2022-10-12T18:25:54.235Z,11.17981
2022-10-12T18:29:19.482Z,11.17981
2022-10-12T18:32:44.701Z,11.139526
2022-10-12T18:36:09.889Z,11.089172
2022-10-12T18:39:35.143Z,11.038818
2022-10-12T18:43:00.369Z,10.998535
2022-10-12T18:46:25.673Z,10.958252
2022-10-12T18:49:50.810Z,10.907898
2022-10-12T18:53:16.028Z,10.877686
2022-10-12T18:56:41.270Z,10.787048
2022-10-12T19:00:06.484Z,10.696411
2022-10-12T19:03:31.736Z,10.656128
2022-10-12T19:06:57.863Z,10.635986
2022-10-12T19:10:22.162Z,10.625916
2022-10-12T19:13:47.385Z,10.666199
2022-10-12T19:17:12.647Z,10.635986
2022-10-12T19:20:37.910Z,10.635986
2022-10-12T19:24:03.128Z,10.666199
2022-10-12T19:27:28.351Z,10.595703
2022-10-12T19:30:53.611Z,10.656128
2022-10-12T19:34:18.821Z,10.635986
2022-10-12T19:37:44.103Z,10.635986
2022-10-12T19:41:09.241Z,10.666199
2022-10-12T19:44:34.455Z,10.736694
2022-10-12T19:47:59.743Z,10.787048
2022-10-12T19:51:24.948Z,10.756836
2022-10-12T19:54:50.182Z,10.756836
2022-10-12T19:58:15.396Z,10.787048
2022-10-12T20:01:40.601Z,10.726624
2022-10-12T20:05:05.801Z,10.666199
2022-10-12T20:08:31.002Z,10.55542
2022-10-12T20:11:56.267Z,10.4245
2022-10-12T20:15:21.442Z,10.273438
2022-10-12T20:18:46.684Z,10.202942
2022-10-12T20:22:11.877Z,10.122375
2022-10-12T20:25:37.090Z,10.072021
2022-10-12T20:29:02.341Z,10.082092
2022-10-12T20:32:27.522Z,10.072021
2022-10-12T20:35:52.730Z,10.011597
2022-10-12T20:39:17.950Z,9.941101
2022-10-12T20:42:43.172Z,9.941101
2022-10-12T20:46:08.406Z,9.961243
2022-10-12T20:49:33.597Z,9.971313
2022-10-12T20:52:58.797Z,10.021667
2022-10-12T20:56:23.976Z,10.041809
2022-10-12T20:59:49.233Z,10.041809
2022-10-12T21:03:14.433Z,9.991455
2022-10-12T21:06:39.631Z,9.93103
2022-10-12T21:10:04.808Z,9.810181
2022-10-12T21:13:30.004Z,9.779968
2022-10-12T21:16:55.216Z,9.739685
2022-10-12T21:20:20.454Z,9.719543
2022-10-12T21:23:45.633Z,9.67926
2022-10-12T21:27:10.800Z,9.649048
2022-10-12T21:30:36.016Z,9.649048
2022-10-12T21:34:01.257Z,9.608765
2022-10-12T21:37:26.505Z,9.578552
2022-10-12T21:40:51.651Z,9.558411
2022-10-12T21:44:16.859Z,9.598694
2022-10-12T21:47:42.078Z,9.67926
2022-10-12T21:51:07.277Z,9.790039
2022-10-12T21:54:32.618Z,9.870605
2022-10-12T21:57:57.674Z,9.941101
2022-10-12T22:01:22.844Z,9.991455
2022-10-12T22:04:48.038Z,10.021667
2022-10-12T22:08:13.262Z,10.011597
2022-10-12T22:11:38.492Z,10.011597
2022-10-12T22:15:03.662Z,9.971313
2022-10-12T22:18:28.864Z,10.011597
2022-10-12T22:21:54.073Z,10.072021
2022-10-12T22:25:19.282Z,10.142517
2022-10-12T22:28:44.644Z,10.202942
2022-10-12T22:32:09.667Z,10.253296
2022-10-12T22:35:34.829Z,10.233154
2022-10-12T22:39:00.044Z,10.1828
2022-10-12T22:42:25.252Z,10.1828
2022-10-12T22:45:50.431Z,10.1828
2022-10-12T22:49:15.575Z,10.142517
2022-10-12T22:52:40.771Z,10.112305
2022-10-12T22:56:05.961Z,10.082092
2022-10-12T22:59:31.111Z,10.041809
2022-10-12T23:02:56.298Z,9.991455
2022-10-12T23:06:21.432Z,9.991455
2022-10-12T23:09:46.569Z,9.910889
2022-10-12T23:13:11.741Z,9.870605
2022-10-12T23:16:36.941Z,9.779968
2022-10-12T23:20:02.165Z,9.689331
2022-10-12T23:23:27.316Z,9.709473
2022-10-12T23:26:52.542Z,9.659119
2022-10-12T23:30:17.681Z,9.649048
2022-10-12T23:33:42.852Z,9.608765
2022-10-12T23:37:08.096Z,9.538269
2022-10-12T23:40:33.231Z,9.508057
2022-10-12T23:43:58.424Z,9.467773
2022-10-12T23:47:23.584Z,9.457703
2022-10-12T23:50:48.746Z,9.538269
2022-10-12T23:54:13.921Z,9.578552
2022-10-12T23:57:46.962Z,9.689331
